Antelope, Texas
Current Conditions -  °F | °C
As of 5:50 PM on Wednesday 28 Jan 2015 (Local Time) from KRPH Reporting Station
Clear Clear  
Wind Chill: 76°   Ceiling: Unl
Heat Index: 78°   Visibility: 10mi
Dew Point: 47°   Wind: 8mph
Humidity: 36%   Direction: 200°SSW
Pressure: 29.95"   Gusts: NA
Location:  33.4259°N, 98.383°W
Report Text: KRPH 282350Z AUTO 20007KT 10SM CLR 25/09 A2995 RMK AO2 T02460085 10282 20241
Loading
Personal Weather Stations






























Interactive Weather Map New forecast layout! Learn more

10-Day Weather Forecast

Advertisements
Track Severe Weather on mobile